Brighton, South Carolina
Current Conditions -  °F | °C
As of 3:15 PM on Wednesday 26 Nov 2014 (Local Time) from KJYL Reporting Station
Clear Clear  
Wind Chill: 60°   Ceiling: Unl
Heat Index: 60°   Visibility: 10mi
Dew Point: 44°   Wind: 9mph
Humidity: 57%   Direction: 280°W
Pressure: 30.06"   Gusts: 17mph
Location:  32.6001°N, 81.2393°W
Report Text: KJYL 262015Z AUTO 28008G15KT 10SM CLR 16/07 A3006 RMK AO2 T01550069
Loading
Personal Weather Stations






























Interactive Weather Map New forecast layout! Learn more

10-Day Weather Forecast

Advertisements
Track Severe Weather on mobile